sensor_id;sensor_type;location;lat;lon;timestamp;P1;durP1;ratioP1;P2;durP2;ratioP2
77586;SDS011;66744;49.716;17.158;2023-05-02T00:00:23;10.07;;;7.72;;
77586;SDS011;66744;49.716;17.158;2023-05-02T00:03:24;11.05;;;7.57;;
77586;SDS011;66744;49.716;17.158;2023-05-02T00:06:26;10.27;;;7.70;;
77586;SDS011;66744;49.716;17.158;2023-05-02T00:09:27;14.65;;;9.07;;
77586;SDS011;66744;49.716;17.158;2023-05-02T00:12:29;9.75;;;7.70;;
77586;SDS011;66744;49.716;17.158;2023-05-02T00:15:30;11.35;;;8.40;;
77586;SDS011;66744;49.716;17.158;2023-05-02T00:18:31;10.70;;;8.68;;
77586;SDS011;66744;49.716;17.158;2023-05-02T00:21:33;9.65;;;8.63;;
77586;SDS011;66744;49.716;17.158;2023-05-02T00:24:34;9.02;;;8.10;;
77586;SDS011;66744;49.716;17.158;2023-05-02T00:27:36;9.65;;;7.22;;
77586;SDS011;66744;49.716;17.158;2023-05-02T00:30:41;10.48;;;8.38;;
77586;SDS011;66744;49.716;17.158;2023-05-02T00:33:43;9.07;;;7.18;;
77586;SDS011;66744;49.716;17.158;2023-05-02T00:36:45;10.57;;;8.13;;
77586;SDS011;66744;49.716;17.158;2023-05-02T00:39:46;9.95;;;7.82;;
77586;SDS011;66744;49.716;17.158;2023-05-02T00:42:47;9.52;;;6.95;;
77586;SDS011;66744;49.716;17.158;2023-05-02T00:45:48;10.07;;;7.93;;
77586;SDS011;66744;49.716;17.158;2023-05-02T00:48:50;9.52;;;7.10;;
77586;SDS011;66744;49.716;17.158;2023-05-02T00:51:52;8.77;;;7.32;;
77586;SDS011;66744;49.716;17.158;2023-05-02T00:54:54;10.52;;;6.88;;
77586;SDS011;66744;49.716;17.158;2023-05-02T00:57:56;7.70;;;6.45;;
77586;SDS011;66744;49.716;17.158;2023-05-02T01:11:16;9.52;;;7.80;;
77586;SDS011;66744;49.716;17.158;2023-05-02T01:14:29;9.48;;;7.50;;
77586;SDS011;66744;49.716;17.158;2023-05-02T01:17:41;10.55;;;7.10;;
77586;SDS011;66744;49.716;17.158;2023-05-02T01:20:45;7.88;;;6.55;;
77586;SDS011;66744;49.716;17.158;2023-05-02T01:24:02;8.52;;;6.90;;
77586;SDS011;66744;49.716;17.158;2023-05-02T01:27:14;9.65;;;6.93;;
77586;SDS011;66744;49.716;17.158;2023-05-02T01:30:21;8.10;;;6.45;;
77586;SDS011;66744;49.716;17.158;2023-05-02T01:33:27;7.75;;;6.07;;
77586;SDS011;66744;49.716;17.158;2023-05-02T01:36:31;9.00;;;6.95;;
77586;SDS011;66744;49.716;17.158;2023-05-02T01:39:36;8.35;;;6.32;;
77586;SDS011;66744;49.716;17.158;2023-05-02T01:42:39;9.30;;;6.97;;
77586;SDS011;66744;49.716;17.158;2023-05-02T01:45:44;9.55;;;6.30;;
77586;SDS011;66744;49.716;17.158;2023-05-02T01:48:46;10.40;;;7.38;;
77586;SDS011;66744;49.716;17.158;2023-05-02T01:51:51;11.63;;;6.97;;
77586;SDS011;66744;49.716;17.158;2023-05-02T01:54:53;10.27;;;7.43;;
77586;SDS011;66744;49.716;17.158;2023-05-02T01:57:57;9.25;;;6.32;;
77586;SDS011;66744;49.716;17.158;2023-05-02T02:01:00;9.50;;;6.03;;
77586;SDS011;66744;49.716;17.158;2023-05-02T02:04:02;7.43;;;5.60;;
77586;SDS011;66744;49.716;17.158;2023-05-02T02:07:05;7.88;;;6.25;;
77586;SDS011;66744;49.716;17.158;2023-05-02T02:10:08;8.43;;;6.10;;
77586;SDS011;66744;49.716;17.158;2023-05-02T02:13:17;9.20;;;6.50;;
77586;SDS011;66744;49.716;17.158;2023-05-02T02:16:23;9.35;;;6.78;;
77586;SDS011;66744;49.716;17.158;2023-05-02T02:19:28;8.50;;;6.43;;
77586;SDS011;66744;49.716;17.158;2023-05-02T02:22:33;11.18;;;7.07;;
77586;SDS011;66744;49.716;17.158;2023-05-02T02:25:37;10.63;;;7.20;;
77586;SDS011;66744;49.716;17.158;2023-05-02T02:28:39;12.50;;;7.00;;
77586;SDS011;66744;49.716;17.158;2023-05-02T02:31:40;9.80;;;6.38;;
77586;SDS011;66744;49.716;17.158;2023-05-02T02:34:42;9.00;;;6.28;;
77586;SDS011;66744;49.716;17.158;2023-05-02T02:41:39;9.02;;;4.93;;
77586;SDS011;66744;49.716;17.158;2023-05-02T02:45:04;6.68;;;5.22;;
77586;SDS011;66744;49.716;17.158;2023-05-02T02:48:33;8.52;;;5.90;;
77586;SDS011;66744;49.716;17.158;2023-05-02T02:54:58;8.02;;;5.55;;
77586;SDS011;66744;49.716;17.158;2023-05-02T02:58:19;9.52;;;5.60;;
77586;SDS011;66744;49.716;17.158;2023-05-02T03:01:31;6.53;;;5.63;;
77586;SDS011;66744;49.716;17.158;2023-05-02T03:04:33;8.25;;;5.35;;
77586;SDS011;66744;49.716;17.158;2023-05-02T03:07:39;7.25;;;5.30;;
77586;SDS011;66744;49.716;17.158;2023-05-02T03:10:41;8.02;;;5.85;;
77586;SDS011;66744;49.716;17.158;2023-05-02T03:13:44;9.10;;;5.70;;
77586;SDS011;66744;49.716;17.158;2023-05-02T03:16:48;8.55;;;6.53;;
77586;SDS011;66744;49.716;17.158;2023-05-02T03:19:50;7.88;;;5.72;;
77586;SDS011;66744;49.716;17.158;2023-05-02T03:22:52;15.32;;;8.57;;
77586;SDS011;66744;49.716;17.158;2023-05-02T03:25:53;16.67;;;9.32;;
77586;SDS011;66744;49.716;17.158;2023-05-02T03:28:58;31.27;;;16.65;;
77586;SDS011;66744;49.716;17.158;2023-05-02T03:32:05;11.27;;;7.00;;
77586;SDS011;66744;49.716;17.158;2023-05-02T03:35:07;8.98;;;6.55;;
77586;SDS011;66744;49.716;17.158;2023-05-02T03:38:13;7.32;;;5.28;;
77586;SDS011;66744;49.716;17.158;2023-05-02T03:41:17;6.20;;;4.82;;
77586;SDS011;66744;49.716;17.158;2023-05-02T03:44:26;7.75;;;4.63;;
77586;SDS011;66744;49.716;17.158;2023-05-02T03:47:28;8.32;;;5.05;;
77586;SDS011;66744;49.716;17.158;2023-05-02T03:50:30;6.75;;;4.40;;
77586;SDS011;66744;49.716;17.158;2023-05-02T03:53:32;6.57;;;4.43;;
77586;SDS011;66744;49.716;17.158;2023-05-02T03:56:34;5.50;;;3.97;;
77586;SDS011;66744;49.716;17.158;2023-05-02T03:59:52;5.40;;;3.85;;
77586;SDS011;66744;49.716;17.158;2023-05-02T04:03:01;6.35;;;3.92;;
77586;SDS011;66744;49.716;17.158;2023-05-02T04:06:03;7.32;;;4.05;;
77586;SDS011;66744;49.716;17.158;2023-05-02T04:09:05;6.50;;;3.50;;
77586;SDS011;66744;49.716;17.158;2023-05-02T04:12:14;8.25;;;5.22;;
77586;SDS011;66744;49.716;17.158;2023-05-02T04:15:22;6.13;;;5.43;;
77586;SDS011;66744;49.716;17.158;2023-05-02T04:18:26;6.30;;;5.15;;
77586;SDS011;66744;49.716;17.158;2023-05-02T04:21:27;6.60;;;5.28;;
77586;SDS011;66744;49.716;17.158;2023-05-02T04:24:29;6.18;;;4.55;;
77586;SDS011;66744;49.716;17.158;2023-05-02T04:27:31;6.18;;;5.13;;
77586;SDS011;66744;49.716;17.158;2023-05-02T04:30:33;10.35;;;5.30;;
77586;SDS011;66744;49.716;17.158;2023-05-02T04:33:41;8.88;;;5.90;;
77586;SDS011;66744;49.716;17.158;2023-05-02T04:36:44;10.98;;;6.53;;
77586;SDS011;66744;49.716;17.158;2023-05-02T04:39:50;10.10;;;5.88;;
77586;SDS011;66744;49.716;17.158;2023-05-02T04:42:58;6.45;;;5.75;;
77586;SDS011;66744;49.716;17.158;2023-05-02T04:49:10;9.60;;;6.38;;
77586;SDS011;66744;49.716;17.158;2023-05-02T04:52:11;7.80;;;5.63;;
77586;SDS011;66744;49.716;17.158;2023-05-02T04:55:13;8.15;;;5.82;;
77586;SDS011;66744;49.716;17.158;2023-05-02T04:58:15;8.82;;;7.22;;
77586;SDS011;66744;49.716;17.158;2023-05-02T05:01:18;10.40;;;8.07;;
77586;SDS011;66744;49.716;17.158;2023-05-02T05:04:21;14.30;;;8.35;;
77586;SDS011;66744;49.716;17.158;2023-05-02T05:07:22;13.45;;;8.90;;
77586;SDS011;66744;49.716;17.158;2023-05-02T05:10:27;12.85;;;9.32;;
77586;SDS011;66744;49.716;17.158;2023-05-02T05:13:28;9.38;;;8.32;;
77586;SDS011;66744;49.716;17.158;2023-05-02T05:16:30;9.55;;;7.93;;
77586;SDS011;66744;49.716;17.158;2023-05-02T05:19:32;11.10;;;7.07;;
77586;SDS011;66744;49.716;17.158;2023-05-02T05:22:37;8.88;;;7.53;;
77586;SDS011;66744;49.716;17.158;2023-05-02T05:25:39;9.48;;;6.47;;
77586;SDS011;66744;49.716;17.158;2023-05-02T05:28:41;8.43;;;6.75;;
77586;SDS011;66744;49.716;17.158;2023-05-02T05:31:44;7.90;;;6.15;;
77586;SDS011;66744;49.716;17.158;2023-05-02T05:34:52;9.95;;;7.18;;
77586;SDS011;66744;49.716;17.158;2023-05-02T05:37:55;8.90;;;7.22;;
77586;SDS011;66744;49.716;17.158;2023-05-02T05:40:56;8.20;;;6.70;;
77586;SDS011;66744;49.716;17.158;2023-05-02T05:43:57;9.80;;;7.43;;
77586;SDS011;66744;49.716;17.158;2023-05-02T05:47:01;13.48;;;8.60;;
77586;SDS011;66744;49.716;17.158;2023-05-02T05:50:05;9.60;;;7.25;;
77586;SDS011;66744;49.716;17.158;2023-05-02T05:53:07;8.73;;;7.05;;
77586;SDS011;66744;49.716;17.158;2023-05-02T05:56:10;13.27;;;7.90;;
77586;SDS011;66744;49.716;17.158;2023-05-02T05:59:14;10.10;;;7.35;;
77586;SDS011;66744;49.716;17.158;2023-05-02T06:02:15;8.85;;;7.15;;
77586;SDS011;66744;49.716;17.158;2023-05-02T06:05:17;10.95;;;8.02;;
77586;SDS011;66744;49.716;17.158;2023-05-02T06:08:19;10.20;;;6.95;;
77586;SDS011;66744;49.716;17.158;2023-05-02T06:11:21;10.02;;;7.93;;
77586;SDS011;66744;49.716;17.158;2023-05-02T06:14:24;10.70;;;8.55;;
77586;SDS011;66744;49.716;17.158;2023-05-02T06:17:27;10.48;;;7.55;;
77586;SDS011;66744;49.716;17.158;2023-05-02T06:20:31;10.23;;;7.30;;
77586;SDS011;66744;49.716;17.158;2023-05-02T06:23:42;7.53;;;6.72;;
77586;SDS011;66744;49.716;17.158;2023-05-02T06:26:43;8.88;;;6.78;;
77586;SDS011;66744;49.716;17.158;2023-05-02T06:29:46;8.57;;;6.30;;
77586;SDS011;66744;49.716;17.158;2023-05-02T06:32:51;8.30;;;6.22;;
77586;SDS011;66744;49.716;17.158;2023-05-02T06:35:52;8.25;;;5.53;;
77586;SDS011;66744;49.716;17.158;2023-05-02T06:38:53;11.07;;;6.07;;
77586;SDS011;66744;49.716;17.158;2023-05-02T06:41:55;7.57;;;5.90;;
77586;SDS011;66744;49.716;17.158;2023-05-02T06:44:58;8.48;;;6.18;;
77586;SDS011;66744;49.716;17.158;2023-05-02T06:48:02;7.18;;;6.20;;
77586;SDS011;66744;49.716;17.158;2023-05-02T06:51:04;6.82;;;6.13;;
77586;SDS011;66744;49.716;17.158;2023-05-02T06:54:05;6.75;;;5.57;;
77586;SDS011;66744;49.716;17.158;2023-05-02T06:57:07;8.43;;;6.55;;
77586;SDS011;66744;49.716;17.158;2023-05-02T07:00:08;7.40;;;6.25;;
77586;SDS011;66744;49.716;17.158;2023-05-02T07:03:10;8.15;;;6.32;;
77586;SDS011;66744;49.716;17.158;2023-05-02T07:06:12;10.82;;;7.22;;
77586;SDS011;66744;49.716;17.158;2023-05-02T07:09:20;13.25;;;8.40;;
77586;SDS011;66744;49.716;17.158;2023-05-02T07:12:21;10.02;;;6.88;;
77586;SDS011;66744;49.716;17.158;2023-05-02T07:15:22;9.80;;;7.60;;
77586;SDS011;66744;49.716;17.158;2023-05-02T07:18:24;12.95;;;7.30;;
77586;SDS011;66744;49.716;17.158;2023-05-02T07:21:25;7.22;;;6.18;;
77586;SDS011;66744;49.716;17.158;2023-05-02T07:24:27;9.10;;;6.47;;
77586;SDS011;66744;49.716;17.158;2023-05-02T07:27:30;8.52;;;7.47;;
77586;SDS011;66744;49.716;17.158;2023-05-02T07:30:32;9.27;;;6.55;;
77586;SDS011;66744;49.716;17.158;2023-05-02T07:33:33;7.45;;;6.55;;
77586;SDS011;66744;49.716;17.158;2023-05-02T07:36:37;7.47;;;6.22;;
77586;SDS011;66744;49.716;17.158;2023-05-02T07:39:39;8.35;;;6.80;;
77586;SDS011;66744;49.716;17.158;2023-05-02T07:42:40;12.15;;;7.55;;
77586;SDS011;66744;49.716;17.158;2023-05-02T07:45:41;9.70;;;6.60;;
77586;SDS011;66744;49.716;17.158;2023-05-02T07:48:43;9.60;;;7.13;;
77586;SDS011;66744;49.716;17.158;2023-05-02T07:51:44;6.93;;;6.18;;
77586;SDS011;66744;49.716;17.158;2023-05-02T07:54:48;9.18;;;7.00;;
77586;SDS011;66744;49.716;17.158;2023-05-02T07:57:50;6.85;;;6.13;;
77586;SDS011;66744;49.716;17.158;2023-05-02T08:00:52;8.75;;;7.10;;
77586;SDS011;66744;49.716;17.158;2023-05-02T08:03:53;10.77;;;7.50;;
77586;SDS011;66744;49.716;17.158;2023-05-02T08:06:54;9.18;;;7.47;;
77586;SDS011;66744;49.716;17.158;2023-05-02T08:09:56;7.90;;;6.35;;
77586;SDS011;66744;49.716;17.158;2023-05-02T08:12:57;7.82;;;6.10;;
77586;SDS011;66744;49.716;17.158;2023-05-02T08:15:58;7.75;;;6.13;;
77586;SDS011;66744;49.716;17.158;2023-05-02T08:18:59;8.15;;;6.20;;
77586;SDS011;66744;49.716;17.158;2023-05-02T08:22:01;8.63;;;5.90;;
77586;SDS011;66744;49.716;17.158;2023-05-02T08:25:02;7.88;;;5.85;;
77586;SDS011;66744;49.716;17.158;2023-05-02T08:28:03;6.90;;;6.18;;
77586;SDS011;66744;49.716;17.158;2023-05-02T08:31:04;7.40;;;6.28;;
77586;SDS011;66744;49.716;17.158;2023-05-02T08:34:06;7.38;;;6.43;;
77586;SDS011;66744;49.716;17.158;2023-05-02T08:37:07;8.73;;;5.82;;
77586;SDS011;66744;49.716;17.158;2023-05-02T08:40:10;6.45;;;5.53;;
77586;SDS011;66744;49.716;17.158;2023-05-02T08:43:12;6.35;;;5.55;;
77586;SDS011;66744;49.716;17.158;2023-05-02T08:46:16;10.27;;;6.22;;
77586;SDS011;66744;49.716;17.158;2023-05-02T08:49:18;7.43;;;6.45;;
77586;SDS011;66744;49.716;17.158;2023-05-02T08:52:20;6.70;;;6.00;;
77586;SDS011;66744;49.716;17.158;2023-05-02T08:55:23;6.90;;;6.20;;
77586;SDS011;66744;49.716;17.158;2023-05-02T08:58:27;6.93;;;6.18;;
77586;SDS011;66744;49.716;17.158;2023-05-02T09:01:30;8.27;;;6.57;;
77586;SDS011;66744;49.716;17.158;2023-05-02T09:04:33;10.23;;;7.00;;
77586;SDS011;66744;49.716;17.158;2023-05-02T09:07:44;6.85;;;5.75;;
77586;SDS011;66744;49.716;17.158;2023-05-02T09:10:49;7.40;;;5.97;;
77586;SDS011;66744;49.716;17.158;2023-05-02T09:13:51;6.68;;;5.80;;
77586;SDS011;66744;49.716;17.158;2023-05-02T09:16:57;7.75;;;6.70;;
77586;SDS011;66744;49.716;17.158;2023-05-02T09:19:59;9.43;;;6.95;;
77586;SDS011;66744;49.716;17.158;2023-05-02T09:23:01;7.65;;;6.68;;
77586;SDS011;66744;49.716;17.158;2023-05-02T09:26:12;7.65;;;6.55;;
77586;SDS011;66744;49.716;17.158;2023-05-02T09:29:17;10.07;;;7.03;;
77586;SDS011;66744;49.716;17.158;2023-05-02T09:32:20;7.57;;;6.78;;
77586;SDS011;66744;49.716;17.158;2023-05-02T09:35:52;6.53;;;5.65;;
77586;SDS011;66744;49.716;17.158;2023-05-02T09:38:55;8.10;;;6.47;;
77586;SDS011;66744;49.716;17.158;2023-05-02T09:42:10;9.25;;;6.85;;
77586;SDS011;66744;49.716;17.158;2023-05-02T09:45:18;9.85;;;6.97;;
77586;SDS011;66744;49.716;17.158;2023-05-02T09:48:21;8.88;;;6.65;;
77586;SDS011;66744;49.716;17.158;2023-05-02T09:51:24;9.80;;;8.10;;
77586;SDS011;66744;49.716;17.158;2023-05-02T09:54:35;9.73;;;7.75;;
77586;SDS011;66744;49.716;17.158;2023-05-02T09:57:39;11.35;;;8.02;;
77586;SDS011;66744;49.716;17.158;2023-05-02T10:00:41;10.30;;;7.60;;
77586;SDS011;66744;49.716;17.158;2023-05-02T10:03:45;10.90;;;8.70;;
77586;SDS011;66744;49.716;17.158;2023-05-02T10:06:47;9.50;;;8.18;;
77586;SDS011;66744;49.716;17.158;2023-05-02T10:09:51;9.23;;;7.43;;
77586;SDS011;66744;49.716;17.158;2023-05-02T10:12:56;9.90;;;8.27;;
77586;SDS011;66744;49.716;17.158;2023-05-02T10:15:59;11.05;;;8.32;;
77586;SDS011;66744;49.716;17.158;2023-05-02T10:19:05;10.38;;;8.82;;
77586;SDS011;66744;49.716;17.158;2023-05-02T10:25:10;10.43;;;8.65;;
77586;SDS011;66744;49.716;17.158;2023-05-02T10:28:13;8.23;;;7.43;;
77586;SDS011;66744;49.716;17.158;2023-05-02T10:31:23;11.18;;;7.63;;
77586;SDS011;66744;49.716;17.158;2023-05-02T10:34:26;9.85;;;8.38;;
77586;SDS011;66744;49.716;17.158;2023-05-02T10:37:27;10.23;;;7.88;;
77586;SDS011;66744;49.716;17.158;2023-05-02T10:40:30;13.15;;;8.45;;
77586;SDS011;66744;49.716;17.158;2023-05-02T10:43:33;9.10;;;8.13;;
77586;SDS011;66744;49.716;17.158;2023-05-02T10:46:36;9.88;;;8.32;;
77586;SDS011;66744;49.716;17.158;2023-05-02T10:49:53;9.02;;;7.88;;
77586;SDS011;66744;49.716;17.158;2023-05-02T10:52:55;11.20;;;7.78;;
77586;SDS011;66744;49.716;17.158;2023-05-02T10:59:25;9.45;;;7.15;;
77586;SDS011;66744;49.716;17.158;2023-05-02T11:05:30;8.20;;;7.15;;
77586;SDS011;66744;49.716;17.158;2023-05-02T11:08:36;10.48;;;7.45;;
77586;SDS011;66744;49.716;17.158;2023-05-02T11:11:38;9.27;;;7.30;;
77586;SDS011;66744;49.716;17.158;2023-05-02T11:14:44;12.13;;;8.00;;
77586;SDS011;66744;49.716;17.158;2023-05-02T11:24:39;9.00;;;7.30;;
77586;SDS011;66744;49.716;17.158;2023-05-02T11:27:41;8.68;;;7.70;;
77586;SDS011;66744;49.716;17.158;2023-05-02T11:30:45;8.57;;;7.68;;
77586;SDS011;66744;49.716;17.158;2023-05-02T11:33:57;9.43;;;7.63;;
77586;SDS011;66744;49.716;17.158;2023-05-02T11:37:12;9.02;;;7.05;;
77586;SDS011;66744;49.716;17.158;2023-05-02T11:43:17;9.45;;;6.15;;
77586;SDS011;66744;49.716;17.158;2023-05-02T11:46:21;11.43;;;7.70;;
77586;SDS011;66744;49.716;17.158;2023-05-02T11:49:22;8.57;;;6.80;;
77586;SDS011;66744;49.716;17.158;2023-05-02T11:52:24;9.07;;;7.70;;
77586;SDS011;66744;49.716;17.158;2023-05-02T11:55:26;9.20;;;7.00;;
77586;SDS011;66744;49.716;17.158;2023-05-02T11:58:28;8.80;;;7.60;;
77586;SDS011;66744;49.716;17.158;2023-05-02T12:01:32;11.30;;;8.27;;
77586;SDS011;66744;49.716;17.158;2023-05-02T12:04:40;8.85;;;7.63;;
77586;SDS011;66744;49.716;17.158;2023-05-02T12:07:46;9.40;;;8.20;;
77586;SDS011;66744;49.716;17.158;2023-05-02T12:10:50;10.20;;;8.38;;
77586;SDS011;66744;49.716;17.158;2023-05-02T12:13:52;15.90;;;10.63;;
77586;SDS011;66744;49.716;17.158;2023-05-02T12:16:54;14.05;;;9.93;;
77586;SDS011;66744;49.716;17.158;2023-05-02T12:19:58;13.45;;;10.20;;
77586;SDS011;66744;49.716;17.158;2023-05-02T12:23:00;11.57;;;9.75;;
77586;SDS011;66744;49.716;17.158;2023-05-02T12:26:17;12.15;;;9.95;;
77586;SDS011;66744;49.716;17.158;2023-05-02T12:29:36;13.60;;;11.15;;
77586;SDS011;66744;49.716;17.158;2023-05-02T12:32:38;12.50;;;10.77;;
77586;SDS011;66744;49.716;17.158;2023-05-02T12:35:45;12.40;;;9.80;;
77586;SDS011;66744;49.716;17.158;2023-05-02T12:38:50;13.32;;;10.10;;
77586;SDS011;66744;49.716;17.158;2023-05-02T12:42:08;10.32;;;9.20;;
77586;SDS011;66744;49.716;17.158;2023-05-02T12:45:16;11.35;;;9.85;;
77586;SDS011;66744;49.716;17.158;2023-05-02T12:48:25;10.55;;;9.45;;
77586;SDS011;66744;49.716;17.158;2023-05-02T12:51:30;11.02;;;9.52;;
77586;SDS011;66744;49.716;17.158;2023-05-02T12:54:32;10.27;;;9.07;;
77586;SDS011;66744;49.716;17.158;2023-05-02T12:57:34;12.00;;;8.90;;
77586;SDS011;66744;49.716;17.158;2023-05-02T13:00:38;11.27;;;9.07;;
77586;SDS011;66744;49.716;17.158;2023-05-02T13:03:41;11.38;;;8.48;;
77586;SDS011;66744;49.716;17.158;2023-05-02T13:06:43;13.15;;;8.43;;
77586;SDS011;66744;49.716;17.158;2023-05-02T13:09:45;10.27;;;8.85;;
77586;SDS011;66744;49.716;17.158;2023-05-02T13:12:46;10.52;;;8.27;;
77586;SDS011;66744;49.716;17.158;2023-05-02T13:15:48;9.55;;;8.55;;
77586;SDS011;66744;49.716;17.158;2023-05-02T13:18:49;11.68;;;9.13;;
77586;SDS011;66744;49.716;17.158;2023-05-02T13:21:50;11.73;;;9.75;;
77586;SDS011;66744;49.716;17.158;2023-05-02T13:24:51;11.52;;;9.85;;
77586;SDS011;66744;49.716;17.158;2023-05-02T13:27:53;9.75;;;7.88;;
77586;SDS011;66744;49.716;17.158;2023-05-02T13:30:54;10.40;;;9.07;;
77586;SDS011;66744;49.716;17.158;2023-05-02T13:33:58;11.45;;;8.68;;
77586;SDS011;66744;49.716;17.158;2023-05-02T13:37:00;15.48;;;12.23;;
77586;SDS011;66744;49.716;17.158;2023-05-02T13:40:02;13.80;;;11.98;;
77586;SDS011;66744;49.716;17.158;2023-05-02T13:43:05;12.98;;;10.68;;
77586;SDS011;66744;49.716;17.158;2023-05-02T13:46:06;15.70;;;13.48;;
77586;SDS011;66744;49.716;17.158;2023-05-02T13:49:07;12.02;;;10.32;;
77586;SDS011;66744;49.716;17.158;2023-05-02T13:52:08;14.30;;;10.82;;
77586;SDS011;66744;49.716;17.158;2023-05-02T13:55:10;11.13;;;9.70;;
77586;SDS011;66744;49.716;17.158;2023-05-02T13:58:12;11.48;;;9.13;;
77586;SDS011;66744;49.716;17.158;2023-05-02T14:01:13;12.55;;;9.27;;
77586;SDS011;66744;49.716;17.158;2023-05-02T14:04:15;16.35;;;12.30;;
77586;SDS011;66744;49.716;17.158;2023-05-02T14:07:19;13.85;;;11.40;;
77586;SDS011;66744;49.716;17.158;2023-05-02T14:10:25;12.77;;;10.18;;
77586;SDS011;66744;49.716;17.158;2023-05-02T14:13:26;11.43;;;9.82;;
77586;SDS011;66744;49.716;17.158;2023-05-02T14:16:34;10.95;;;9.82;;
77586;SDS011;66744;49.716;17.158;2023-05-02T14:19:35;11.63;;;8.85;;
77586;SDS011;66744;49.716;17.158;2023-05-02T14:22:37;14.63;;;10.13;;
77586;SDS011;66744;49.716;17.158;2023-05-02T14:25:38;6.32;;;4.03;;
77586;SDS011;66744;49.716;17.158;2023-05-02T14:28:42;5.65;;;3.45;;
77586;SDS011;66744;49.716;17.158;2023-05-02T14:31:43;4.88;;;3.50;;
77586;SDS011;66744;49.716;17.158;2023-05-02T14:34:45;4.95;;;4.00;;
77586;SDS011;66744;49.716;17.158;2023-05-02T14:37:47;5.85;;;4.43;;
77586;SDS011;66744;49.716;17.158;2023-05-02T14:40:48;5.30;;;4.05;;
77586;SDS011;66744;49.716;17.158;2023-05-02T14:43:52;5.50;;;4.60;;
77586;SDS011;66744;49.716;17.158;2023-05-02T14:46:53;6.88;;;5.85;;
77586;SDS011;66744;49.716;17.158;2023-05-02T14:49:56;9.77;;;7.35;;
77586;SDS011;66744;49.716;17.158;2023-05-02T14:53:00;8.25;;;6.60;;
77586;SDS011;66744;49.716;17.158;2023-05-02T14:56:01;6.18;;;5.45;;
77586;SDS011;66744;49.716;17.158;2023-05-02T14:59:02;5.88;;;3.92;;
77586;SDS011;66744;49.716;17.158;2023-05-02T15:02:04;3.00;;;2.70;;
77586;SDS011;66744;49.716;17.158;2023-05-02T15:05:09;4.60;;;3.20;;
77586;SDS011;66744;49.716;17.158;2023-05-02T15:08:12;3.88;;;3.20;;
77586;SDS011;66744;49.716;17.158;2023-05-02T15:11:16;4.15;;;2.95;;
77586;SDS011;66744;49.716;17.158;2023-05-02T15:14:21;3.80;;;3.28;;
77586;SDS011;66744;49.716;17.158;2023-05-02T15:17:33;9.05;;;5.80;;
77586;SDS011;66744;49.716;17.158;2023-05-02T15:20:35;5.28;;;4.50;;
77586;SDS011;66744;49.716;17.158;2023-05-02T15:23:36;2.70;;;2.47;;
77586;SDS011;66744;49.716;17.158;2023-05-02T15:26:37;3.40;;;2.90;;
77586;SDS011;66744;49.716;17.158;2023-05-02T15:29:40;3.55;;;2.70;;
77586;SDS011;66744;49.716;17.158;2023-05-02T15:32:41;3.75;;;2.60;;
77586;SDS011;66744;49.716;17.158;2023-05-02T15:36:00;3.45;;;2.92;;
77586;SDS011;66744;49.716;17.158;2023-05-02T15:39:05;4.18;;;3.45;;
77586;SDS011;66744;49.716;17.158;2023-05-02T15:42:06;4.55;;;3.92;;
77586;SDS011;66744;49.716;17.158;2023-05-02T15:45:09;4.50;;;4.10;;
77586;SDS011;66744;49.716;17.158;2023-05-02T15:48:13;6.85;;;5.25;;
77586;SDS011;66744;49.716;17.158;2023-05-02T15:51:14;11.57;;;7.70;;
77586;SDS011;66744;49.716;17.158;2023-05-02T15:54:16;10.18;;;6.95;;
77586;SDS011;66744;49.716;17.158;2023-05-02T15:57:17;14.35;;;10.05;;
77586;SDS011;66744;49.716;17.158;2023-05-02T16:00:19;12.93;;;10.18;;
77586;SDS011;66744;49.716;17.158;2023-05-02T16:03:26;8.48;;;6.13;;
77586;SDS011;66744;49.716;17.158;2023-05-02T16:06:28;6.97;;;5.25;;
77586;SDS011;66744;49.716;17.158;2023-05-02T16:09:30;5.30;;;4.63;;
77586;SDS011;66744;49.716;17.158;2023-05-02T16:12:31;5.75;;;4.88;;
77586;SDS011;66744;49.716;17.158;2023-05-02T16:15:33;7.03;;;6.22;;
77586;SDS011;66744;49.716;17.158;2023-05-02T16:18:34;4.78;;;3.88;;
77586;SDS011;66744;49.716;17.158;2023-05-02T16:21:35;4.00;;;3.20;;
77586;SDS011;66744;49.716;17.158;2023-05-02T16:24:40;4.47;;;3.47;;
77586;SDS011;66744;49.716;17.158;2023-05-02T16:27:41;4.45;;;3.67;;
77586;SDS011;66744;49.716;17.158;2023-05-02T16:30:43;5.72;;;3.75;;
77586;SDS011;66744;49.716;17.158;2023-05-02T16:33:45;5.75;;;3.40;;
77586;SDS011;66744;49.716;17.158;2023-05-02T16:36:47;2.85;;;2.20;;
77586;SDS011;66744;49.716;17.158;2023-05-02T16:39:48;3.80;;;2.53;;
77586;SDS011;66744;49.716;17.158;2023-05-02T16:42:50;5.47;;;3.42;;
77586;SDS011;66744;49.716;17.158;2023-05-02T16:45:58;3.92;;;3.22;;
77586;SDS011;66744;49.716;17.158;2023-05-02T16:49:03;6.20;;;3.67;;
77586;SDS011;66744;49.716;17.158;2023-05-02T16:52:04;5.43;;;4.32;;
77586;SDS011;66744;49.716;17.158;2023-05-02T16:55:05;8.90;;;5.75;;
77586;SDS011;66744;49.716;17.158;2023-05-02T16:58:07;12.07;;;7.63;;
77586;SDS011;66744;49.716;17.158;2023-05-02T17:01:09;11.57;;;7.60;;
77586;SDS011;66744;49.716;17.158;2023-05-02T17:04:10;5.93;;;4.78;;
77586;SDS011;66744;49.716;17.158;2023-05-02T17:07:12;5.90;;;4.68;;
77586;SDS011;66744;49.716;17.158;2023-05-02T17:10:13;5.90;;;3.63;;
77586;SDS011;66744;49.716;17.158;2023-05-02T17:13:14;5.32;;;3.47;;
77586;SDS011;66744;49.716;17.158;2023-05-02T17:16:18;6.88;;;3.80;;
77586;SDS011;66744;49.716;17.158;2023-05-02T17:19:22;5.13;;;3.90;;
77586;SDS011;66744;49.716;17.158;2023-05-02T17:22:24;5.85;;;3.70;;
77586;SDS011;66744;49.716;17.158;2023-05-02T17:25:27;5.93;;;3.38;;
77586;SDS011;66744;49.716;17.158;2023-05-02T17:28:29;9.38;;;5.97;;
77586;SDS011;66744;49.716;17.158;2023-05-02T17:31:31;5.85;;;5.22;;
77586;SDS011;66744;49.716;17.158;2023-05-02T17:34:33;4.78;;;3.55;;
77586;SDS011;66744;49.716;17.158;2023-05-02T17:37:37;6.72;;;4.25;;
77586;SDS011;66744;49.716;17.158;2023-05-02T17:40:40;7.50;;;4.10;;
77586;SDS011;66744;49.716;17.158;2023-05-02T17:43:42;6.63;;;4.35;;
77586;SDS011;66744;49.716;17.158;2023-05-02T17:46:50;9.90;;;4.43;;
77586;SDS011;66744;49.716;17.158;2023-05-02T17:49:52;8.80;;;5.13;;
77586;SDS011;66744;49.716;17.158;2023-05-02T17:52:54;7.22;;;4.95;;
77586;SDS011;66744;49.716;17.158;2023-05-02T17:55:56;7.68;;;5.20;;
77586;SDS011;66744;49.716;17.158;2023-05-02T17:58:57;8.38;;;6.22;;
77586;SDS011;66744;49.716;17.158;2023-05-02T18:01:59;9.48;;;6.85;;
77586;SDS011;66744;49.716;17.158;2023-05-02T18:05:00;8.45;;;6.88;;
77586;SDS011;66744;49.716;17.158;2023-05-02T18:08:04;10.68;;;5.75;;
77586;SDS011;66744;49.716;17.158;2023-05-02T18:11:12;9.73;;;7.07;;
77586;SDS011;66744;49.716;17.158;2023-05-02T18:14:20;7.18;;;6.00;;
77586;SDS011;66744;49.716;17.158;2023-05-02T18:17:27;9.35;;;6.50;;
77586;SDS011;66744;49.716;17.158;2023-05-02T18:20:29;8.77;;;6.65;;
77586;SDS011;66744;49.716;17.158;2023-05-02T18:23:31;6.88;;;5.75;;
77586;SDS011;66744;49.716;17.158;2023-05-02T18:26:32;8.50;;;6.28;;
77586;SDS011;66744;49.716;17.158;2023-05-02T18:29:34;19.77;;;15.52;;
77586;SDS011;66744;49.716;17.158;2023-05-02T18:32:36;12.90;;;9.75;;
77586;SDS011;66744;49.716;17.158;2023-05-02T18:35:37;12.77;;;9.25;;
77586;SDS011;66744;49.716;17.158;2023-05-02T18:38:38;9.50;;;7.68;;
77586;SDS011;66744;49.716;17.158;2023-05-02T18:41:44;8.43;;;7.43;;